Time;durP1;ratioP1;P1;durP2;ratioP2;P2;SDS_P1;SDS_P2;PMS_P1;PMS_P2;Temp;Humidity;BMP_temperature;BMP_pressure;BME280_temperature;BME280_humidity;BME280_pressure;Samples;Min_cycle;Max_cycle;Signal;HPM_P1;HPM_P2
2022/05/04 10:25:59;;;;;;;3.60;2.97;;;;;;;27.42;35.85;99271.28;5087982;27;21134;-73
2022/05/04 10:28:26;;;;;;;4.65;2.70;;;;;;;27.80;34.58;99272.97;5088428;28;20228;-73
2022/05/04 10:30:53;;;;;;;4.53;2.80;;;;;;;28.04;35.21;99261.56;5088515;28;20206;-73
2022/05/04 10:33:25;;;;;;;4.80;2.83;;;;;;;27.42;35.33;99273.94;5087942;28;20684;-74
2022/05/04 10:35:52;;;;;;;3.25;2.65;;;;;;;27.68;35.54;99262.38;5088171;28;20213;-74
2022/05/04 10:38:33;;;;;;;4.72;3.03;;;;;;;27.69;33.21;99259.53;5088770;28;20206;-80
2022/05/04 10:41:05;;;;;;;4.07;2.90;;;;;;;28.05;31.47;99257.94;5088342;28;20194;-80
2022/05/04 10:43:38;;;;;;;4.38;2.83;;;;;;;28.20;31.08;99260.19;5087910;28;20647;-81
2022/05/04 10:46:06;;;;;;;3.67;2.63;;;;;;;28.34;32.77;99264.25;5087913;28;20714;-81
2022/05/04 10:48:33;;;;;;;3.78;2.83;;;;;;;27.60;30.89;99257.38;5087773;28;20309;-80
2022/05/04 10:51:05;;;;;;;4.55;2.72;;;;;;;27.25;32.88;99257.91;5088182;28;20202;-80
2022/05/04 10:53:43;;;;;;;3.58;2.88;;;;;;;27.62;34.90;99252.72;5087788;28;20187;-83
2022/05/04 10:56:14;;;;;;;3.42;2.63;;;;;;;27.79;32.83;99259.03;5087900;28;20672;-82
2022/05/04 10:58:46;;;;;;;4.88;2.72;;;;;;;27.52;31.75;99253.25;5083097;28;20226;-82
2022/05/04 11:01:16;;;;;;;4.57;2.78;;;;;;;27.67;33.04;99251.06;5079934;28;20202;-83
2022/05/04 11:03:57;;;;;;;3.67;2.80;;;;;;;27.68;31.47;99247.41;5079202;28;20575;-76
2022/05/04 11:06:29;;;;;;;3.03;2.72;;;;;;;27.47;34.69;99237.31;5082869;28;20187;-77
2022/05/04 11:08:59;;;;;;;3.28;2.70;;;;;;;27.47;34.55;99242.56;5085140;28;20609;-77
2022/05/04 11:11:28;;;;;;;3.83;2.63;;;;;;;27.25;34.59;99242.16;5081200;28;20264;-77
2022/05/04 11:13:55;;;;;;;4.45;3.10;;;;;;;26.90;34.75;99244.44;5084826;28;20234;-79
2022/05/04 11:16:24;;;;;;;5.03;3.00;;;;;;;26.58;36.69;99241.81;5086996;28;20198;-78
2022/05/04 11:18:51;;;;;;;3.70;2.72;;;;;;;26.22;35.17;99231.91;5086724;28;20237;-79
2022/05/04 11:21:19;;;;;;;7.53;3.15;;;;;;;26.47;34.95;99234.56;5086798;28;20198;-77
2022/05/04 11:23:50;;;;;;;3.83;2.78;;;;;;;26.31;34.89;99231.44;5086786;28;20227;-76
2022/05/04 11:26:21;;;;;;;6.55;2.78;;;;;;;25.96;33.99;99223.94;5086899;28;20198;-76
2022/05/04 11:28:50;;;;;;;3.13;2.58;;;;;;;26.08;33.51;99231.16;5086449;28;20598;-74
2022/05/04 11:31:18;;;;;;;3.83;2.83;;;;;;;25.46;38.44;99228.88;5086717;28;20614;-73
2022/05/04 11:33:47;;;;;;;3.42;2.75;;;;;;;25.34;36.37;99220.03;5086578;28;20635;-74
2022/05/04 11:36:14;;;;;;;4.35;2.90;;;;;;;25.09;39.71;99217.19;5078826;28;20202;-79
2022/05/04 11:38:45;;;;;;;3.72;2.80;;;;;;;25.36;38.54;99218.00;5069587;28;20230;-79
2022/05/04 11:41:13;;;;;;;4.38;3.00;;;;;;;26.00;36.84;99224.31;5073393;28;20289;-80
2022/05/04 11:43:40;;;;;;;4.45;2.70;;;;;;;25.86;34.58;99218.34;5072898;28;21948;-80
2022/05/04 11:46:11;;;;;;;4.22;2.70;;;;;;;26.24;37.04;99220.19;5073292;28;20206;-79
2022/05/04 11:48:42;;;;;;;4.20;2.55;;;;;;;26.38;35.00;99220.91;5072799;28;20714;-80
2022/05/04 11:51:09;;;;;;;2.78;2.33;;;;;;;26.28;35.27;99224.00;5072970;28;20730;-80
2022/05/04 11:53:36;;;;;;;3.95;2.67;;;;;;;26.05;34.50;99219.25;5072431;28;20221;-79
2022/05/04 11:56:04;;;;;;;3.28;2.50;;;;;;;26.09;35.96;99211.78;5072956;28;20256;-79
2022/05/04 11:58:32;;;;;;;3.70;2.72;;;;;;;26.37;33.37;99214.88;5072659;28;20651;-79
2022/05/04 12:00:59;;;;;;;3.00;2.60;;;;;;;26.24;34.32;99216.75;5073371;28;20203;-79
2022/05/04 12:03:29;;;;;;;4.30;2.67;;;;;;;26.67;35.30;99208.25;5072661;28;20598;-79
2022/05/04 12:05:56;;;;;;;5.18;2.70;;;;;;;26.87;33.29;99204.47;5073129;28;20207;-80
2022/05/04 12:08:25;;;;;;;4.57;2.60;;;;;;;27.15;33.44;99205.91;5072464;28;20742;-80
2022/05/04 12:10:52;;;;;;;4.43;2.55;;;;;;;27.05;33.40;99210.78;5073059;28;20199;-80
2022/05/04 12:13:24;;;;;;;2.83;2.40;;;;;;;25.95;33.05;99211.84;5072545;28;20578;-80
2022/05/04 12:15:53;;;;;;;4.05;2.50;;;;;;;25.49;34.76;99210.13;5072877;28;20644;-80
2022/05/04 12:18:19;;;;;;;3.35;2.75;;;;;;;24.97;34.33;99209.16;5072775;28;20203;-79
2022/05/04 12:20:48;;;;;;;8.70;2.88;;;;;;;24.83;37.36;99210.16;5072985;28;20210;-80
2022/05/04 12:23:16;;;;;;;6.55;2.78;;;;;;;25.10;35.56;99202.28;5072276;28;20202;-80
2022/05/04 12:25:44;;;;;;;3.05;2.60;;;;;;;25.31;34.15;99204.75;5072924;28;20753;-80
2022/05/04 12:28:11;;;;;;;4.20;2.40;;;;;;;25.28;34.68;99211.19;5072636;28;20202;-80
2022/05/04 12:33:31;;;;;;;3.33;2.38;;;;;;;25.01;35.43;99199.88;5072324;28;20284;-74
2022/05/04 12:36:07;;;;;;;4.43;2.50;;;;;;;24.57;33.24;99201.25;5072372;28;20802;-74
2022/05/04 12:38:35;;;;;;;2.60;2.40;;;;;;;24.26;33.82;99198.34;5072211;28;20217;-74
2022/05/04 12:41:02;;;;;;;3.35;2.45;;;;;;;24.40;34.60;99192.97;5072504;28;20211;-73
2022/05/04 12:43:31;;;;;;;4.10;2.13;;;;;;;24.20;30.70;99197.31;5071870;28;20207;-74
2022/05/04 12:45:58;;;;;;;2.75;2.20;;;;;;;24.20;32.31;99192.09;5072187;28;20618;-73
2022/05/04 12:48:26;;;;;;;2.42;2.20;;;;;;;24.40;34.20;99192.13;5071027;28;20568;-74
2022/05/04 12:50:55;;;;;;;3.05;2.30;;;;;;;24.32;31.61;99194.97;5072168;28;20206;-74
2022/05/04 12:53:25;;;;;;;3.05;2.40;;;;;;;24.56;31.02;99197.03;5071679;28;20206;-73
2022/05/04 12:58:37;;;;;;;3.65;2.20;;;;;;;24.61;31.05;99194.66;5071703;28;20205;-74
2022/05/04 13:01:04;;;;;;;4.30;2.95;;;;;;;24.56;32.24;99191.81;5071819;28;20734;-74
2022/05/04 13:03:31;;;;;;;2.92;2.35;;;;;;;24.36;35.11;99190.94;5071504;28;20702;-73
2022/05/04 13:05:58;;;;;;;2.90;2.60;;;;;;;24.43;31.86;99193.59;5070890;28;20203;-73
2022/05/04 13:08:27;;;;;;;2.63;2.13;;;;;;;24.48;33.50;99194.59;5071274;28;20629;-73
2022/05/04 13:10:54;;;;;;;2.63;2.40;;;;;;;24.71;29.96;99198.66;5067996;28;20326;-73
2022/05/04 13:13:25;;;;;;;2.85;2.25;;;;;;;24.88;31.40;99191.25;5064551;28;20677;-74
2022/05/04 13:15:52;;;;;;;5.10;2.47;;;;;;;24.97;32.21;99185.59;5071569;28;20219;-73
2022/05/04 13:18:19;;;;;;;3.95;2.55;;;;;;;24.88;29.67;99193.88;5071575;28;20264;-74
2022/05/04 13:20:46;;;;;;;2.40;2.20;;;;;;;24.92;30.42;99188.00;5071529;28;20206;-74
2022/05/04 13:23:13;;;;;;;3.45;2.30;;;;;;;24.89;29.21;99191.03;5067919;28;20207;-74
2022/05/04 13:25:41;;;;;;;4.05;2.38;;;;;;;24.68;30.59;99193.84;5071701;28;20604;-73
2022/05/04 13:28:08;;;;;;;2.65;2.30;;;;;;;24.76;31.21;99193.66;5071295;28;20199;-74
2022/05/04 13:30:36;;;;;;;3.13;2.20;;;;;;;24.79;30.99;99195.88;5071134;28;20222;-74
2022/05/04 13:33:04;;;;;;;5.30;2.20;;;;;;;24.00;29.89;99197.25;5069193;28;20202;-74
2022/05/04 13:35:31;;;;;;;4.93;2.47;;;;;;;24.37;33.64;99184.69;5050157;28;20239;-82
2022/05/04 13:37:58;;;;;;;5.05;2.65;;;;;;;24.52;32.20;99198.47;5060338;28;20203;-75
2022/05/04 13:40:25;;;;;;;3.47;2.65;;;;;;;24.50;32.66;99182.16;5071168;28;20214;-75
2022/05/04 13:42:54;;;;;;;3.58;2.50;;;;;;;24.61;33.86;99192.03;5070971;28;20199;-75
2022/05/04 13:45:21;;;;;;;4.47;2.60;;;;;;;24.18;32.97;99200.13;5071332;28;20718;-75
2022/05/04 13:47:48;;;;;;;3.60;2.67;;;;;;;24.29;35.14;99190.09;5071073;28;20203;-74
2022/05/04 13:55:41;;;;;;;5.60;3.00;;;;;;;24.27;34.16;99192.94;5070766;28;20313;-73
2022/05/04 13:58:09;;;;;;;3.15;2.50;;;;;;;24.07;32.83;99194.66;5070731;28;20214;-75
2022/05/04 14:00:36;;;;;;;3.10;2.53;;;;;;;24.08;32.54;99193.66;5071141;28;20214;-74
2022/05/04 14:03:03;;;;;;;3.55;2.72;;;;;;;24.24;32.95;99201.16;5071169;28;20260;-74
2022/05/04 14:05:30;;;;;;;4.15;2.60;;;;;;;24.22;33.57;99189.28;5071197;28;20227;-73
2022/05/04 14:07:57;;;;;;;4.55;2.65;;;;;;;24.17;33.65;99193.31;5070812;28;20202;-75
2022/05/04 14:10:24;;;;;;;3.55;2.60;;;;;;;24.39;33.98;99190.53;5071106;28;20226;-76
2022/05/04 14:12:51;;;;;;;4.35;2.85;;;;;;;24.66;34.12;99190.63;5060026;28;20202;-75
2022/05/04 14:15:19;;;;;;;4.00;2.67;;;;;;;24.49;34.63;99190.97;5071055;28;20230;-75
2022/05/04 14:17:46;;;;;;;2.83;2.47;;;;;;;24.12;32.82;99190.47;5070150;28;20207;-75
2022/05/04 14:20:13;;;;;;;4.03;2.90;;;;;;;23.97;34.96;99182.00;5070488;28;20226;-75
2022/05/04 14:22:39;;;;;;;4.35;2.78;;;;;;;23.78;35.78;99185.31;5070198;28;20222;-75
2022/05/04 14:25:07;;;;;;;3.28;2.42;;;;;;;23.76;36.38;99182.06;5070411;28;20230;-75
2022/05/04 14:27:34;;;;;;;3.47;2.60;;;;;;;23.59;34.90;99187.59;5070393;28;20202;-75
2022/05/04 14:30:00;;;;;;;6.05;2.63;;;;;;;23.43;35.70;99191.31;5070973;28;20214;-75
2022/05/04 14:32:29;;;;;;;3.20;2.35;;;;;;;23.28;36.28;99188.81;5070489;28;20263;-74
2022/05/04 14:34:55;;;;;;;2.67;2.38;;;;;;;23.08;36.19;99187.84;5070835;28;20214;-75
2022/05/04 14:37:22;;;;;;;11.93;3.75;;;;;;;22.99;36.42;99183.78;5070599;28;20206;-74
2022/05/04 14:39:49;;;;;;;3.90;2.83;;;;;;;23.03;36.45;99179.78;5070258;28;20219;-76
2022/05/04 14:42:16;;;;;;;8.57;2.80;;;;;;;23.31;35.30;99184.22;5070040;28;20556;-75
2022/05/04 14:44:43;;;;;;;3.15;2.60;;;;;;;23.28;36.19;99188.81;5070514;28;20727;-75
2022/05/04 14:47:10;;;;;;;4.70;2.38;;;;;;;23.08;37.24;99187.84;5070522;28;20205;-75
2022/05/04 14:49:38;;;;;;;4.60;2.50;;;;;;;22.93;36.05;99189.72;5070500;28;20222;-75
2022/05/04 14:52:05;;;;;;;5.53;2.60;;;;;;;22.86;37.85;99194.06;5070199;28;20213;-76
2022/05/04 14:54:32;;;;;;;2.97;2.60;;;;;;;22.83;36.79;99200.44;5070632;28;20219;-75
2022/05/04 14:56:59;;;;;;;2.70;2.50;;;;;;;22.69;36.94;99199.53;5070343;28;20238;-75
2022/05/04 14:59:27;;;;;;;5.50;2.57;;;;;;;22.73;39.28;99199.97;5070195;28;20230;-76
2022/05/04 15:01:54;;;;;;;5.87;2.67;;;;;;;22.61;38.76;99202.25;5070304;28;20201;-75
2022/05/04 15:07:06;;;;;;;3.67;2.80;;;;;;;22.52;39.00;99203.38;5070172;28;20588;-76
2022/05/04 15:09:33;;;;;;;3.53;2.60;;;;;;;22.51;39.84;99204.34;5070406;28;20224;-75
2022/05/04 15:12:00;;;;;;;4.00;2.73;;;;;;;22.34;39.84;99212.41;5072584;28;20200;-76
2022/05/04 15:14:29;;;;;;;3.83;2.50;;;;;;;22.29;40.71;99213.97;5074183;28;20230;-75
2022/05/04 15:16:56;;;;;;;4.60;2.80;;;;;;;22.23;42.14;99214.69;5073576;28;20730;-75
2022/05/04 15:19:23;;;;;;;5.17;3.67;;;;;;;22.20;42.12;99221.06;5073885;28;20629;-74
2022/05/04 15:21:49;;;;;;;4.60;3.23;;;;;;;22.10;42.36;99225.72;5073471;28;20196;-75
2022/05/04 15:24:18;;;;;;;5.73;3.40;;;;;;;22.00;43.52;99233.00;5073539;28;20599;-75
2022/05/04 15:26:44;;;;;;;4.93;2.87;;;;;;;21.75;44.19;99233.25;5073791;28;20215;-74
2022/05/04 15:29:11;;;;;;;5.70;3.33;;;;;;;21.56;46.96;99232.00;5073325;28;20230;-75
2022/05/04 15:31:38;;;;;;;4.93;2.73;;;;;;;21.26;47.55;99228.50;5073518;28;20217;-75
2022/05/04 15:34:05;;;;;;;4.73;3.07;;;;;;;21.08;47.52;99230.63;5073351;28;20233;-75
2022/05/04 15:36:32;;;;;;;5.53;2.80;;;;;;;20.91;48.15;99235.13;5073595;28;20283;-75
2022/05/04 15:38:59;;;;;;;3.83;2.90;;;;;;;20.82;46.83;99236.97;5073213;28;20229;-75
2022/05/04 15:41:27;;;;;;;4.17;2.90;;;;;;;20.65;47.80;99240.66;5073277;28;20207;-75
2022/05/04 15:43:54;;;;;;;4.87;3.00;;;;;;;20.55;47.88;99244.28;5073414;28;20646;-75
2022/05/04 15:46:21;;;;;;;9.07;4.07;;;;;;;20.41;47.42;99250.19;5073225;28;20685;-78
2022/05/04 15:48:48;;;;;;;8.90;3.33;;;;;;;20.28;47.97;99255.13;5072930;28;20233;-75
2022/05/04 15:51:15;;;;;;;6.53;3.30;;;;;;;20.13;47.96;99253.25;5073361;28;20213;-74
2022/05/04 15:53:42;;;;;;;4.03;2.87;;;;;;;20.06;49.04;99262.66;5072683;28;20235;-74
2022/05/04 15:56:09;;;;;;;8.43;5.00;;;;;;;19.89;50.16;99261.09;5073325;28;20231;-74
2022/05/04 15:58:37;;;;;;;14.53;6.37;;;;;;;19.91;50.75;99266.94;5073028;28;20195;-74
2022/05/04 16:01:04;;;;;;;7.73;4.23;;;;;;;19.77;51.02;99270.22;5073136;28;20200;-73
2022/05/04 16:06:15;;;;;;;4.60;2.90;;;;;;;19.45;52.20;99285.59;5052837;28;20191;-73
2022/05/04 16:08:42;;;;;;;4.10;3.00;;;;;;;19.26;51.51;99290.31;5052618;28;20326;-72
2022/05/04 16:11:09;;;;;;;5.67;2.90;;;;;;;19.04;51.30;99292.56;5052485;28;20685;-73
2022/05/04 16:13:37;;;;;;;5.90;3.43;;;;;;;18.76;52.04;99300.63;5052670;28;20213;-80
2022/05/04 16:16:05;;;;;;;6.57;3.17;;;;;;;18.59;54.15;99300.69;5052575;28;20628;-80
2022/05/04 16:24:07;;;;;;;5.73;3.83;;;;;;;17.87;55.89;99299.22;5052378;28;20289;-80
2022/05/04 16:26:34;;;;;;;6.23;3.73;;;;;;;17.68;56.45;99309.72;5052407;28;20230;-80
2022/05/04 16:29:03;;;;;;;6.40;3.43;;;;;;;17.57;56.60;99310.78;5052413;28;20216;-79
2022/05/04 16:31:30;;;;;;;4.37;3.53;;;;;;;17.43;56.93;99314.72;5052470;28;20286;-80
2022/05/04 16:33:56;;;;;;;6.17;3.30;;;;;;;17.41;57.68;99316.63;5051879;28;20233;-80
2022/05/04 16:36:23;;;;;;;4.70;3.20;;;;;;;17.24;57.00;99322.63;5052371;28;20223;-73
2022/05/04 16:38:50;;;;;;;4.57;3.20;;;;;;;17.09;57.30;99318.94;5052150;28;20233;-73
2022/05/04 16:41:17;;;;;;;5.67;3.10;;;;;;;17.06;58.27;99327.78;5052095;28;20226;-73
2022/05/04 16:43:44;;;;;;;4.37;3.20;;;;;;;17.06;58.63;99324.38;5052153;28;20252;-74
2022/05/04 16:46:12;;;;;;;5.67;3.60;;;;;;;16.97;58.90;99326.88;5052122;28;20222;-73
2022/05/04 16:48:41;;;;;;;4.50;3.33;;;;;;;16.93;58.68;99320.41;5051847;28;20195;-73
2022/05/04 16:51:08;;;;;;;5.67;3.20;;;;;;;16.81;58.43;99323.31;5052150;28;20205;-73
2022/05/04 16:53:36;;;;;;;6.53;3.70;;;;;;;16.67;58.25;99317.66;5051925;28;20195;-73
2022/05/04 16:56:04;;;;;;;4.37;2.93;;;;;;;16.49;58.54;99317.63;5051773;28;20236;-73
2022/05/04 16:58:31;;;;;;;2.43;2.23;;;;;;;16.49;57.48;99325.38;5051792;28;20200;-74
2022/05/04 17:00:58;;;;;;;3.43;2.47;;;;;;;16.49;57.71;99320.22;5051664;28;20200;-74
2022/05/04 17:03:28;;;;;;;2.60;2.40;;;;;;;16.40;58.35;99323.63;5050310;28;20202;-73
2022/05/04 17:05:55;;;;;;;4.27;2.60;;;;;;;16.39;57.95;99327.16;5051780;28;20665;-80
2022/05/04 17:08:22;;;;;;;6.33;2.77;;;;;;;16.32;58.75;99326.13;5051660;28;20195;-80
2022/05/04 17:10:49;;;;;;;3.10;2.20;;;;;;;16.33;58.54;99322.56;5054087;28;20267;-80
2022/05/04 17:13:16;;;;;;;3.03;2.40;;;;;;;16.30;59.30;99328.00;5071449;28;20210;-79
2022/05/04 17:15:43;;;;;;;3.77;2.40;;;;;;;16.33;59.00;99332.91;5071434;28;20225;-79
2022/05/04 17:18:12;;;;;;;2.80;2.40;;;;;;;16.24;58.90;99328.59;5071242;28;20191;-80
2022/05/04 17:20:40;;;;;;;4.37;2.90;;;;;;;16.21;59.40;99339.19;5071648;28;20222;-80
2022/05/04 17:23:07;;;;;;;10.83;3.83;;;;;;;16.14;58.84;99325.22;5071259;28;20206;-74
2022/05/04 17:25:34;;;;;;;6.77;3.50;;;;;;;16.14;59.54;99338.09;5071438;28;20226;-73
2022/05/04 17:28:00;;;;;;;56.00;8.67;;;;;;;16.09;59.79;99333.38;5071373;28;20589;-79
2022/05/04 17:30:27;;;;;;;19.10;4.70;;;;;;;16.05;59.47;99332.81;5071448;28;20218;-80
2022/05/04 17:38:24;;;;;;;4.20;3.13;;;;;;;15.80;61.95;99333.44;5070887;28;20186;-80
2022/05/04 17:40:51;;;;;;;4.13;2.90;;;;;;;15.74;62.70;99334.81;5071115;28;20210;-79
2022/05/04 17:43:18;;;;;;;4.63;3.30;;;;;;;15.66;63.28;99336.41;5070995;28;20201;-79
2022/05/04 17:45:47;;;;;;;4.57;3.53;;;;;;;15.65;63.96;99345.06;5071039;28;20219;-80
2022/05/04 17:48:14;;;;;;;4.73;3.17;;;;;;;15.64;64.08;99346.84;5070751;28;20289;-80
2022/05/04 17:50:42;;;;;;;4.87;3.50;;;;;;;15.57;64.82;99351.75;5071269;28;20222;-80
2022/05/04 17:53:09;;;;;;;4.70;3.17;;;;;;;15.58;65.35;99347.41;5070876;28;20203;-80
2022/05/04 17:55:36;;;;;;;3.77;2.97;;;;;;;15.46;64.82;99340.75;5069114;28;20233;-80
2022/05/04 17:58:03;;;;;;;4.73;3.13;;;;;;;15.44;65.29;99345.22;5070455;28;20214;-80
2022/05/04 18:00:30;;;;;;;2.90;2.60;;;;;;;15.37;64.83;99355.25;5070771;28;20219;-80
2022/05/04 18:05:43;;;;;;;5.97;3.47;;;;;;;15.19;65.44;99367.19;5071516;28;20226;-80
2022/05/04 18:08:10;;;;;;;6.80;3.77;;;;;;;15.12;65.85;99367.69;5070399;28;20193;-80
2022/05/04 18:10:36;;;;;;;5.10;3.50;;;;;;;15.08;66.33;99376.66;5066152;28;20234;-79
2022/05/04 18:13:03;;;;;;;6.27;3.77;;;;;;;15.13;66.40;99379.66;5050815;28;20195;-74
2022/05/04 18:15:30;;;;;;;4.87;3.80;;;;;;;15.14;66.58;99385.59;5050513;28;20233;-74
2022/05/04 18:17:57;;;;;;;9.03;3.97;;;;;;;15.11;67.08;99384.09;5050500;28;20352;-73
2022/05/04 18:20:24;;;;;;;5.37;3.40;;;;;;;15.09;67.53;99390.31;5049621;28;20606;-73
2022/05/04 18:22:52;;;;;;;4.63;3.57;;;;;;;14.98;68.28;99393.84;5050312;28;20656;-73
2022/05/04 18:25:19;;;;;;;5.10;3.20;;;;;;;15.00;68.54;99399.66;5050457;28;20226;-80
2022/05/04 18:27:46;;;;;;;6.00;3.70;;;;;;;14.98;68.04;99396.41;5050534;28;20203;-79
2022/05/04 18:30:13;;;;;;;5.93;3.80;;;;;;;14.94;68.00;99395.03;5050370;28;20224;-80
2022/05/04 18:32:40;;;;;;;5.97;3.90;;;;;;;14.93;67.74;99403.72;5050212;28;20589;-79
2022/05/04 18:35:08;;;;;;;9.83;4.07;;;;;;;14.88;67.84;99411.00;5050593;28;20606;-73
2022/05/04 18:37:35;;;;;;;7.13;4.43;;;;;;;14.84;68.19;99404.50;5050118;28;20231;-73
2022/05/04 18:40:04;;;;;;;7.03;4.13;;;;;;;14.80;68.04;99409.06;5050598;28;20602;-79
2022/05/04 18:42:31;;;;;;;8.93;5.00;;;;;;;14.77;67.67;99409.34;5050073;28;20213;-79
2022/05/04 18:44:58;;;;;;;9.23;4.90;;;;;;;14.77;67.24;99403.38;5050552;28;20224;-80
2022/05/04 18:47:25;;;;;;;7.17;4.37;;;;;;;14.73;67.46;99407.16;5053982;28;20202;-78
2022/05/04 18:49:52;;;;;;;7.93;4.50;;;;;;;14.79;67.14;99406.63;5054378;28;20692;-80
2022/05/04 18:52:19;;;;;;;6.97;4.60;;;;;;;14.77;67.21;99408.53;5054041;28;20685;-79
2022/05/04 18:54:45;;;;;;;7.78;4.68;;;;;;;14.81;67.13;99409.91;5053110;28;20451;-79
2022/05/04 18:57:14;;;;;;;5.87;4.07;;;;;;;14.76;67.09;99412.06;5062378;28;20228;-79
2022/05/04 18:59:41;;;;;;;7.17;4.03;;;;;;;14.67;67.61;99409.31;5072374;28;20307;-80
2022/05/04 19:02:09;;;;;;;6.23;4.50;;;;;;;14.62;67.71;99416.59;5072293;28;20207;-79
2022/05/04 19:04:36;;;;;;;5.23;4.30;;;;;;;14.53;67.80;99407.06;5072559;28;20229;-80
2022/05/04 19:07:03;;;;;;;6.17;5.00;;;;;;;14.49;68.32;99413.41;5072405;28;20205;-80
2022/05/04 19:09:30;;;;;;;6.03;4.60;;;;;;;14.39;68.17;99413.31;5072248;28;20323;-80
2022/05/04 19:11:58;;;;;;;8.40;4.93;;;;;;;14.24;69.27;99417.97;5060838;28;20229;-79
2022/05/04 19:14:26;;;;;;;6.03;4.77;;;;;;;14.22;69.44;99414.75;5053831;28;20870;-79
2022/05/04 19:16:53;;;;;;;7.67;5.13;;;;;;;14.20;70.01;99421.75;5053955;28;20246;-79
2022/05/04 19:19:20;;;;;;;9.97;6.27;;;;;;;14.14;70.28;99416.31;5053800;28;20224;-79
2022/05/04 19:21:48;;;;;;;6.73;5.50;;;;;;;14.18;70.69;99418.47;5053641;28;20203;-79
2022/05/04 19:24:15;;;;;;;5.73;4.60;;;;;;;14.19;70.77;99425.25;5053879;28;20220;-79
2022/05/04 19:26:42;;;;;;;17.10;10.97;;;;;;;14.12;71.29;99424.13;5053420;28;20208;-79
2022/05/04 19:29:09;;;;;;;12.83;9.17;;;;;;;14.04;71.40;99426.50;5053555;28;20223;-79
2022/05/04 19:31:37;;;;;;;14.30;10.13;;;;;;;13.99;71.99;99432.03;5053396;28;20748;-79
2022/05/04 19:34:04;;;;;;;11.60;7.47;;;;;;;13.91;72.50;99424.13;5053564;28;20250;-72
2022/05/04 19:36:31;;;;;;;19.47;12.77;;;;;;;13.88;72.97;99431.28;5053368;28;20626;-79
2022/05/04 19:38:58;;;;;;;7.50;5.53;;;;;;;13.85;73.19;99431.53;5053471;28;20218;-79
2022/05/04 19:41:25;;;;;;;8.20;5.23;;;;;;;13.78;73.82;99431.97;5053452;28;20567;-78
2022/05/04 19:43:52;;;;;;;7.77;5.63;;;;;;;13.68;74.38;99440.56;5053128;28;20226;-79
2022/05/04 19:46:20;;;;;;;8.63;6.40;;;;;;;13.69;74.76;99437.88;5053139;28;20665;-79
2022/05/04 19:48:48;;;;;;;11.63;8.43;;;;;;;13.63;75.15;99440.13;5053055;28;20246;-79
2022/05/04 19:51:15;;;;;;;20.10;10.17;;;;;;;13.67;74.83;99434.63;5053159;28;20207;-79
2022/05/04 19:53:45;;;;;;;12.60;7.80;;;;;;;13.68;75.06;99436.25;5052786;28;20227;-78
2022/05/04 19:56:13;;;;;;;11.27;7.20;;;;;;;13.64;74.85;99429.69;5052554;28;20196;-79
2022/05/04 19:58:41;;;;;;;6.93;5.20;;;;;;;13.61;75.22;99434.28;5052653;28;20207;-79
2022/05/04 20:01:09;;;;;;;5.80;4.80;;;;;;;13.56;75.50;99432.09;5053164;28;20199;-78
2022/05/04 20:03:36;;;;;;;11.47;5.37;;;;;;;13.42;75.48;99429.78;5053096;28;20199;-79
2022/05/04 20:06:04;;;;;;;7.67;5.00;;;;;;;13.36;76.31;99428.50;5052756;28;20238;-78
2022/05/04 20:08:31;;;;;;;6.57;4.60;;;;;;;13.32;76.38;99430.50;5052781;28;20283;-79
2022/05/04 20:10:58;;;;;;;6.70;4.70;;;;;;;13.22;76.82;99426.16;5052708;28;20510;-79
2022/05/04 20:13:25;;;;;;;7.60;4.87;;;;;;;13.09;77.24;99431.44;5052413;28;20696;-79
2022/05/04 20:15:52;;;;;;;8.57;5.20;;;;;;;12.89;78.43;99438.09;5052743;28;20202;-78
2022/05/04 20:18:19;;;;;;;6.73;5.10;;;;;;;12.79;78.93;99432.84;5052292;28;20628;-78
2022/05/04 20:20:46;;;;;;;9.40;5.77;;;;;;;12.74;78.92;99445.22;5052358;28;20215;-79
2022/05/04 20:23:15;;;;;;;13.77;8.27;;;;;;;12.74;78.81;99445.22;5052651;28;20199;-78
2022/05/04 20:25:44;;;;;;;9.53;6.57;;;;;;;12.74;78.95;99447.78;5052709;28;20321;-78
2022/05/04 20:28:11;;;;;;;10.83;5.97;;;;;;;12.74;79.33;99452.06;5052560;28;20222;-78
2022/05/04 20:30:38;;;;;;;7.77;5.67;;;;;;;12.79;78.87;99463.63;5052674;28;20226;-78
2022/05/04 20:33:06;;;;;;;7.73;5.37;;;;;;;12.67;79.63;99474.81;5052207;28;20207;-78
2022/05/04 20:35:34;;;;;;;9.87;5.53;;;;;;;12.57;80.40;99484.13;5052523;28;20223;-78
2022/05/04 20:40:47;;;;;;;9.07;5.70;;;;;;;12.37;82.45;99494.09;5052103;28;20245;-78
2022/05/04 20:43:14;;;;;;;7.53;5.73;;;;;;;12.30;83.03;99487.78;5052353;28;20199;-72
2022/05/04 20:45:41;;;;;;;6.30;4.90;;;;;;;12.48;82.76;99479.66;5052355;28;20219;-72
2022/05/04 20:48:08;;;;;;;6.73;4.73;;;;;;;12.55;82.65;99486.00;5051926;28;20229;-72
2022/05/04 20:53:19;;;;;;;6.80;4.97;;;;;;;12.63;82.84;99492.19;5051761;28;20711;-72
2022/05/04 20:55:49;;;;;;;8.77;5.13;;;;;;;12.74;82.49;99488.84;5052003;28;20199;-72
2022/05/04 20:58:17;;;;;;;7.17;4.97;;;;;;;12.79;82.47;99494.41;5051664;28;20234;-72
2022/05/04 21:00:44;;;;;;;6.67;4.93;;;;;;;12.86;82.15;99489.66;5051718;28;20230;-72
2022/05/04 21:03:10;;;;;;;7.93;5.00;;;;;;;12.95;82.13;99493.28;5052167;28;20609;-78
2022/05/04 21:05:38;;;;;;;6.27;4.70;;;;;;;12.98;82.04;99495.63;5052075;28;20223;-78
2022/05/04 21:08:06;;;;;;;7.47;5.00;;;;;;;12.95;82.21;99501.78;5051352;28;20199;-78
2022/05/04 21:10:33;;;;;;;7.70;4.83;;;;;;;12.97;82.11;99504.22;5052108;28;20227;-79
2022/05/04 21:13:04;;;;;;;7.57;4.90;;;;;;;12.97;82.11;99511.94;5071569;28;20206;-72
2022/05/04 21:15:31;;;;;;;7.23;4.83;;;;;;;13.00;82.76;99520.25;5071795;28;20303;-72
2022/05/04 21:17:57;;;;;;;6.63;4.77;;;;;;;13.00;82.05;99520.25;5071632;28;20230;-78
2022/05/04 21:20:25;;;;;;;7.33;5.33;;;;;;;12.96;82.21;99515.44;5071658;28;20218;-78
2022/05/04 21:22:52;;;;;;;8.27;5.40;;;;;;;13.00;81.63;99517.66;5071323;28;20210;-79
2022/05/04 21:25:19;;;;;;;9.77;5.77;;;;;;;12.98;81.11;99519.53;5071362;28;20723;-78
2022/05/04 21:27:46;;;;;;;9.80;5.73;;;;;;;12.94;81.23;99517.28;5071471;28;20210;-72
2022/05/04 21:30:15;;;;;;;9.43;5.97;;;;;;;12.99;81.17;99520.34;5071472;28;20214;-72
2022/05/04 21:32:42;;;;;;;7.60;5.70;;;;;;;13.03;81.36;99525.13;5071372;28;20218;-72
2022/05/04 21:35:10;;;;;;;9.90;6.60;;;;;;;13.06;81.61;99522.34;5071391;28;20616;-72
2022/05/04 21:37:37;;;;;;;12.93;7.80;;;;;;;13.11;81.28;99527.09;5070925;28;20230;-78
2022/05/04 21:40:05;;;;;;;9.20;6.57;;;;;;;13.07;81.01;99523.16;5071342;28;20218;-79
2022/05/04 21:42:32;;;;;;;8.10;6.13;;;;;;;13.05;81.15;99509.59;5070955;28;20201;-72
2022/05/04 21:44:59;;;;;;;6.93;5.60;;;;;;;12.99;81.04;99515.22;5071228;28;20214;-72
2022/05/04 21:47:27;;;;;;;6.50;5.30;;;;;;;12.98;80.31;99504.13;5071102;28;20203;-78
2022/05/04 21:49:54;;;;;;;7.73;5.27;;;;;;;12.95;80.37;99506.13;5071152;28;20227;-72
2022/05/04 21:52:21;;;;;;;9.03;5.30;;;;;;;12.95;80.78;99513.81;5070993;28;20199;-72
2022/05/04 21:54:47;;;;;;;7.07;5.10;;;;;;;12.88;81.15;99509.13;5071092;28;20217;-72
2022/05/04 21:57:14;;;;;;;7.87;4.97;;;;;;;12.82;81.00;99509.56;5070719;28;20230;-78
2022/05/04 21:59:41;;;;;;;9.73;5.27;;;;;;;12.75;81.31;99510.97;5071122;28;20223;-78
2022/05/04 22:02:08;;;;;;;6.03;4.57;;;;;;;12.72;81.06;99511.22;5070000;28;20218;-72
2022/05/04 22:04:38;;;;;;;8.53;4.97;;;;;;;12.69;81.52;99509.69;5070926;28;20229;-79
2022/05/04 22:07:05;;;;;;;14.47;5.30;;;;;;;12.63;81.89;99514.47;5070484;28;20234;-72
2022/05/04 22:09:32;;;;;;;7.17;5.10;;;;;;;12.60;82.26;99520.63;5069645;28;20218;-72
2022/05/04 22:14:43;;;;;;;8.03;4.97;;;;;;;12.45;82.40;99509.75;5050921;28;20357;-72
2022/05/04 22:17:10;;;;;;;7.63;4.43;;;;;;;12.41;82.37;99516.03;5050446;28;20673;-72
2022/05/04 22:19:38;;;;;;;7.07;5.07;;;;;;;12.38;82.66;99516.25;5051082;28;20224;-78
2022/05/04 22:22:05;;;;;;;6.27;4.77;;;;;;;12.35;82.80;99526.72;5050812;28;20203;-72
2022/05/04 22:24:32;;;;;;;6.13;4.40;;;;;;;12.29;82.97;99522.03;5050898;28;20234;-72
2022/05/04 22:26:59;;;;;;;6.20;4.63;;;;;;;12.25;83.56;99528.34;5051174;28;20337;-72
2022/05/04 22:29:26;;;;;;;8.27;5.03;;;;;;;12.23;83.58;99519.94;5050927;28;20234;-78
2022/05/04 22:31:53;;;;;;;6.07;5.00;;;;;;;12.23;83.79;99520.75;5050990;28;20580;-72
2022/05/04 22:34:20;;;;;;;8.97;5.40;;;;;;;12.18;83.51;99504.06;5050828;28;20219;-72
2022/05/04 22:36:48;;;;;;;8.13;4.80;;;;;;;12.16;83.55;99511.06;5050587;28;20199;-72